createdAt,value
2017-09-08T00:00:14.380Z,91.96
2017-09-08T00:02:42.895Z,91.78
2017-09-08T00:05:11.344Z,92.23
2017-09-08T00:07:39.776Z,92.41
2017-09-08T00:10:08.228Z,92.35
2017-09-08T00:12:36.660Z,92.74
2017-09-08T00:15:05.212Z,93.07
2017-09-08T00:17:33.697Z,93.04
2017-09-08T00:20:02.143Z,92.89
2017-09-08T00:22:30.671Z,92.97
2017-09-08T00:25:00.736Z,93.02
2017-09-08T00:27:29.931Z,92.54
2017-09-08T00:29:58.384Z,92.35
2017-09-08T00:32:26.836Z,92.25
2017-09-08T00:34:55.320Z,92.34
2017-09-08T00:37:23.802Z,91.78
2017-09-08T00:39:52.252Z,91.52
2017-09-08T00:42:21.488Z,91.24
2017-09-08T00:44:49.959Z,91.03
2017-09-08T00:47:18.447Z,90.99
2017-09-08T00:49:46.896Z,90.77
2017-09-08T00:52:16.088Z,90.92
2017-09-08T00:54:45.295Z,90.76
2017-09-08T00:57:14.523Z,90.84
2017-09-08T00:59:42.971Z,90.75
2017-09-08T01:02:12.215Z,90.65
2017-09-08T01:04:40.654Z,90.66
2017-09-08T01:07:09.852Z,90.10
2017-09-08T01:09:39.084Z,89.94
2017-09-08T01:12:07.512Z,90.05
2017-09-08T01:14:36.048Z,89.64
2017-09-08T01:17:04.479Z,89.68
2017-09-08T01:19:33.736Z,89.77
2017-09-08T01:22:02.212Z,89.61
2017-09-08T01:24:30.813Z,89.47
2017-09-08T01:26:59.249Z,89.90
2017-09-08T01:29:28.464Z,89.41
2017-09-08T01:31:56.961Z,89.25
2017-09-08T01:34:25.427Z,89.29
2017-09-08T01:36:54.788Z,89.31
2017-09-08T01:39:23.221Z,89.52
2017-09-08T01:41:51.672Z,89.81
2017-09-08T01:44:20.862Z,89.94
2017-09-08T01:46:50.080Z,89.67
2017-09-08T01:49:19.307Z,89.81
2017-09-08T01:51:47.756Z,89.58
2017-09-08T01:54:16.984Z,89.49
2017-09-08T01:56:45.432Z,89.36
2017-09-08T01:59:14.664Z,89.65
2017-09-08T02:01:43.163Z,89.41
2017-09-08T02:04:11.628Z,89.17
2017-09-08T02:06:40.103Z,89.24
2017-09-08T02:09:08.536Z,89.34
2017-09-08T02:11:37.081Z,89.24
2017-09-08T02:14:05.566Z,89.19
2017-09-08T02:16:34.039Z,89.53
2017-09-08T02:19:02.519Z,89.49
2017-09-08T02:24:33.450Z,89.97
2017-09-08T02:27:02.684Z,89.82
2017-09-08T02:29:31.113Z,89.94
2017-09-08T02:31:59.572Z,90.01
2017-09-08T02:34:28.008Z,89.97
2017-09-08T02:36:57.225Z,89.87
2017-09-08T02:39:25.708Z,89.85
2017-09-08T02:41:54.156Z,89.72
2017-09-08T02:44:23.353Z,89.73
2017-09-08T02:46:52.587Z,89.56
2017-09-08T02:49:21.021Z,89.73
2017-09-08T02:51:49.477Z,90.00
2017-09-08T02:54:17.907Z,89.89
2017-09-08T02:56:47.227Z,90.20
2017-09-08T02:59:15.712Z,90.35
2017-09-08T03:01:44.161Z,90.50
2017-09-08T03:04:13.364Z,90.45
2017-09-08T03:06:42.696Z,90.75
2017-09-08T03:09:11.140Z,90.61
2017-09-08T03:11:40.350Z,90.41
2017-09-08T03:14:09.572Z,90.44
2017-09-08T03:16:38.055Z,90.45
2017-09-08T03:19:06.549Z,90.57
2017-09-08T03:21:34.985Z,90.88
2017-09-08T03:24:04.208Z,90.80
2017-09-08T03:26:32.699Z,90.86
2017-09-08T03:29:01.148Z,91.04
2017-09-08T03:31:30.390Z,91.30
2017-09-08T03:33:58.848Z,91.36
2017-09-08T03:36:28.073Z,91.33
2017-09-08T03:38:56.549Z,91.39
2017-09-08T03:41:24.984Z,91.37
2017-09-08T03:43:53.513Z,91.52
2017-09-08T03:46:21.992Z,91.38
2017-09-08T03:48:50.448Z,91.07
2017-09-08T03:51:19.645Z,90.33
2017-09-08T03:53:48.860Z,90.06
2017-09-08T03:56:17.351Z,89.67
2017-09-08T03:58:45.842Z,89.27
2017-09-08T04:01:14.326Z,89.04
2017-09-08T04:03:42.808Z,88.79
2017-09-08T04:06:11.280Z,88.64
2017-09-08T04:08:39.764Z,88.48
2017-09-08T04:11:08.248Z,88.37
2017-09-08T04:13:36.721Z,88.46
2017-09-08T04:16:05.151Z,87.89
2017-09-08T04:18:33.703Z,87.71
2017-09-08T04:21:02.987Z,87.69
2017-09-08T04:23:31.435Z,87.62
2017-09-08T04:26:00.641Z,87.73
2017-09-08T04:28:29.843Z,87.59
2017-09-08T04:30:59.181Z,87.53
2017-09-08T04:33:27.650Z,87.35
2017-09-08T04:35:56.090Z,87.78
2017-09-08T04:38:24.616Z,87.20
2017-09-08T04:40:53.063Z,87.33
2017-09-08T04:43:22.272Z,87.04
2017-09-08T04:45:51.487Z,86.68
2017-09-08T04:48:19.915Z,86.63
2017-09-08T04:50:48.464Z,86.68
2017-09-08T04:53:16.953Z,86.52
2017-09-08T04:55:45.416Z,86.47
2017-09-08T04:58:13.904Z,86.51
2017-09-08T05:00:42.399Z,86.10
2017-09-08T05:03:10.876Z,86.02
2017-09-08T05:05:39.332Z,85.52
2017-09-08T05:08:08.569Z,85.52
2017-09-08T05:10:37.027Z,85.29
2017-09-08T05:13:05.456Z,84.83
2017-09-08T05:15:33.899Z,84.64
2017-09-08T05:18:02.385Z,84.84
2017-09-08T05:20:30.855Z,84.68
2017-09-08T05:22:59.348Z,84.82
2017-09-08T05:25:27.830Z,84.74
2017-09-08T05:27:56.303Z,84.44
2017-09-08T05:30:24.788Z,84.84
2017-09-08T05:32:53.267Z,84.44
2017-09-08T05:35:21.767Z,84.17
2017-09-08T05:37:50.245Z,83.76
2017-09-08T05:40:18.725Z,83.67
2017-09-08T05:42:47.195Z,83.32
2017-09-08T05:45:15.629Z,83.38
2017-09-08T05:47:44.159Z,83.43
2017-09-08T05:50:12.648Z,83.76
2017-09-08T05:52:41.127Z,84.29
2017-09-08T05:55:09.607Z,83.97
2017-09-08T05:57:38.061Z,83.94
2017-09-08T06:00:07.301Z,84.00
2017-09-08T06:02:35.785Z,83.82
2017-09-08T06:05:04.263Z,84.29
2017-09-08T06:07:32.730Z,83.97
2017-09-08T06:10:01.164Z,83.99
2017-09-08T06:12:29.707Z,83.96
2017-09-08T06:14:58.165Z,83.99
2017-09-08T06:17:27.385Z,83.68
2017-09-08T06:19:55.823Z,84.06
2017-09-08T06:22:25.055Z,83.82
2017-09-08T06:24:53.548Z,84.62
2017-09-08T06:27:21.975Z,84.23
2017-09-08T06:29:50.424Z,84.06
2017-09-08T06:32:18.883Z,84.12
2017-09-08T06:34:47.385Z,84.03
2017-09-08T06:37:16.254Z,83.87
2017-09-08T06:39:44.748Z,84.00
2017-09-08T06:42:13.218Z,83.95
2017-09-08T06:44:41.675Z,84.03
2017-09-08T06:47:11.024Z,84.00
2017-09-08T06:49:39.460Z,83.37
2017-09-08T06:52:08.776Z,83.87
2017-09-08T06:54:38.097Z,82.99
2017-09-08T06:57:06.522Z,82.85
2017-09-08T06:59:35.056Z,82.78
2017-09-08T07:02:03.532Z,82.56
2017-09-08T07:04:31.988Z,82.42
2017-09-08T07:07:01.220Z,82.23
2017-09-08T07:09:29.671Z,81.88
2017-09-08T07:11:58.899Z,81.59
2017-09-08T07:14:27.353Z,81.50
2017-09-08T07:16:56.580Z,80.54
2017-09-08T07:19:25.028Z,80.96
2017-09-08T07:21:54.260Z,80.93
2017-09-08T07:24:22.744Z,81.44
2017-09-08T07:26:51.224Z,81.79
2017-09-08T07:29:19.708Z,81.26
2017-09-08T07:31:48.182Z,81.60
2017-09-08T07:34:16.643Z,80.86
2017-09-08T07:36:45.841Z,80.78
2017-09-08T07:39:15.037Z,80.72
2017-09-08T07:41:44.272Z,80.32
2017-09-08T07:44:12.698Z,80.74
2017-09-08T07:46:41.232Z,80.08
2017-09-08T07:49:09.715Z,80.39
2017-09-08T07:51:38.201Z,80.25
2017-09-08T07:54:06.627Z,79.98
2017-09-08T07:56:35.080Z,79.72
2017-09-08T07:59:03.513Z,79.86
2017-09-08T08:01:32.719Z,80.15
2017-09-08T08:04:01.912Z,80.31
2017-09-08T08:06:31.150Z,80.87
2017-09-08T08:08:59.626Z,80.67
2017-09-08T08:11:28.076Z,80.34
2017-09-08T08:13:57.275Z,80.72
2017-09-08T08:16:26.591Z,80.10
2017-09-08T08:18:55.019Z,79.98
2017-09-08T08:21:23.567Z,80.31
2017-09-08T08:23:52.059Z,79.72
2017-09-08T08:26:20.537Z,79.35
2017-09-08T08:28:48.960Z,79.75
2017-09-08T08:31:17.400Z,80.12
2017-09-08T08:33:45.836Z,79.90
2017-09-08T08:36:15.065Z,79.75
2017-09-08T08:38:43.605Z,79.86
2017-09-08T08:41:12.051Z,79.97
2017-09-08T08:43:40.508Z,79.75
2017-09-08T08:46:09.003Z,80.29
2017-09-08T08:48:37.481Z,80.92
2017-09-08T08:51:05.916Z,80.97
2017-09-08T08:53:34.444Z,81.04
2017-09-08T08:56:02.872Z,81.83
2017-09-08T08:58:31.411Z,82.74
2017-09-08T09:00:59.845Z,81.85
2017-09-08T09:03:29.064Z,82.26
2017-09-08T09:05:58.251Z,82.05
2017-09-08T09:08:27.476Z,81.86
2017-09-08T09:10:55.972Z,82.05
2017-09-08T09:13:24.455Z,81.89
2017-09-08T09:15:52.931Z,80.95
2017-09-08T09:18:21.389Z,81.04
2017-09-08T09:20:50.583Z,81.19
2017-09-08T09:23:19.804Z,81.57
2017-09-08T09:25:48.287Z,81.66
2017-09-08T09:28:16.750Z,82.00
2017-09-08T09:30:45.976Z,81.85
2017-09-08T09:33:14.456Z,82.60
2017-09-08T09:35:42.936Z,82.25
2017-09-08T09:38:11.415Z,82.58
2017-09-08T09:40:39.904Z,83.66
2017-09-08T09:43:08.352Z,83.85
2017-09-08T09:45:37.552Z,82.66
2017-09-08T09:48:06.773Z,82.37
2017-09-08T09:50:35.269Z,82.32
2017-09-08T09:53:03.695Z,82.07
2017-09-08T09:55:32.140Z,82.24
2017-09-08T09:58:00.567Z,82.54
2017-09-08T10:00:29.096Z,82.75
2017-09-08T10:02:57.579Z,82.44
2017-09-08T10:05:26.056Z,82.18
2017-09-08T10:07:54.551Z,82.24
2017-09-08T10:10:23.020Z,83.00
2017-09-08T10:12:51.448Z,82.48
2017-09-08T10:15:19.988Z,83.04
2017-09-08T10:17:48.425Z,82.78
2017-09-08T10:20:17.678Z,82.46
2017-09-08T10:22:46.139Z,83.04
2017-09-08T10:25:14.637Z,82.29
2017-09-08T10:27:43.072Z,83.50
2017-09-08T10:30:12.308Z,83.44
2017-09-08T10:32:40.740Z,83.25
2017-09-08T10:35:09.197Z,83.70
2017-09-08T10:37:37.623Z,82.62
2017-09-08T10:40:06.831Z,82.41
2017-09-08T10:42:36.042Z,82.71
2017-09-08T10:45:04.532Z,82.40
2017-09-08T10:47:32.960Z,81.94
2017-09-08T10:50:01.409Z,81.75
2017-09-08T10:52:29.873Z,81.79
2017-09-08T10:54:58.356Z,81.79
2017-09-08T10:57:26.841Z,81.42
2017-09-08T10:59:55.319Z,80.93
2017-09-08T11:02:23.800Z,80.48
2017-09-08T11:04:52.256Z,81.84
2017-09-08T11:07:21.489Z,81.94
2017-09-08T11:09:49.937Z,81.94
2017-09-08T11:12:19.476Z,81.12
2017-09-08T11:14:47.923Z,80.11
2017-09-08T11:17:17.153Z,80.16
2017-09-08T11:19:45.636Z,79.93
2017-09-08T11:22:14.132Z,80.49
2017-09-08T11:24:42.607Z,79.63
2017-09-08T11:27:11.080Z,80.02
2017-09-08T11:29:39.560Z,80.47
2017-09-08T11:32:07.988Z,80.24
2017-09-08T11:34:42.055Z,80.77
2017-09-08T11:37:10.492Z,80.69
2017-09-08T11:39:38.952Z,80.26
2017-09-08T11:42:07.387Z,80.07
2017-09-08T11:44:35.827Z,79.13
2017-09-08T11:47:05.180Z,79.43
2017-09-08T11:49:33.608Z,78.61
2017-09-08T11:52:02.148Z,78.24
2017-09-08T11:54:30.577Z,77.72
2017-09-08T11:56:59.091Z,77.55
2017-09-08T11:59:28.313Z,76.89
2017-09-08T12:01:56.759Z,76.63
2017-09-08T12:04:25.996Z,76.61
2017-09-08T12:06:54.472Z,76.35
2017-09-08T12:09:22.951Z,75.95
2017-09-08T12:11:51.445Z,76.22
2017-09-08T12:14:19.876Z,76.59
2017-09-08T12:16:49.133Z,76.23
2017-09-08T12:19:17.559Z,76.10
2017-09-08T12:21:46.781Z,75.89
2017-09-08T12:24:15.996Z,75.92
2017-09-08T12:26:44.448Z,76.87
2017-09-08T12:29:13.686Z,77.71
2017-09-08T12:31:42.166Z,77.62
2017-09-08T12:34:10.610Z,77.49
2017-09-08T12:36:39.940Z,77.35
2017-09-08T12:39:08.371Z,77.47
2017-09-08T12:41:36.819Z,77.01
2017-09-08T12:44:05.256Z,76.28
2017-09-08T12:46:34.588Z,76.86
2017-09-08T12:49:03.015Z,77.37
2017-09-08T12:51:31.552Z,77.04
2017-09-08T12:53:59.989Z,77.42
2017-09-08T12:56:28.531Z,76.82
2017-09-08T12:58:56.997Z,77.43
2017-09-08T13:01:25.480Z,76.96
2017-09-08T13:03:53.964Z,76.51
2017-09-08T13:06:22.445Z,76.64
2017-09-08T13:08:50.875Z,77.24
2017-09-08T13:11:19.323Z,77.29
2017-09-08T13:13:47.779Z,76.78
2017-09-08T13:16:16.271Z,77.17
2017-09-08T13:18:44.766Z,76.90
2017-09-08T13:21:13.217Z,76.90
2017-09-08T13:23:41.720Z,77.00
2017-09-08T13:26:10.202Z,76.79
2017-09-08T13:28:38.689Z,76.50
2017-09-08T13:31:07.164Z,76.63
2017-09-08T13:33:35.648Z,76.77
2017-09-08T13:36:05.507Z,76.56
2017-09-08T13:38:34.666Z,76.46
2017-09-08T13:41:03.145Z,76.82
2017-09-08T13:43:31.580Z,75.91
2017-09-08T13:46:00.116Z,76.46
2017-09-08T13:48:28.548Z,76.67
2017-09-08T13:50:57.781Z,77.36
2017-09-08T13:53:26.232Z,77.51
2017-09-08T13:55:55.464Z,78.05
2017-09-08T13:58:24.057Z,78.54
2017-09-08T14:00:52.496Z,78.62
2017-09-08T14:03:21.708Z,79.28
2017-09-08T14:05:50.904Z,79.09
2017-09-08T14:08:20.128Z,78.56
2017-09-08T14:10:48.616Z,78.69
2017-09-08T14:13:17.088Z,79.08
2017-09-08T14:15:45.511Z,79.44
2017-09-08T14:18:13.960Z,79.03
2017-09-08T14:20:42.392Z,79.47
2017-09-08T14:23:10.849Z,78.61
2017-09-08T14:25:39.301Z,79.76
2017-09-08T14:28:07.776Z,80.56
2017-09-08T14:30:36.209Z,80.70
2017-09-08T14:33:04.656Z,80.56
2017-09-08T14:35:33.092Z,81.50
2017-09-08T14:38:02.317Z,81.85
2017-09-08T14:40:30.749Z,81.63
2017-09-08T14:42:59.284Z,81.18
2017-09-08T14:45:27.712Z,82.06
2017-09-08T14:47:56.928Z,81.83
2017-09-08T14:50:26.129Z,82.58
2017-09-08T14:52:55.348Z,82.21
2017-09-08T14:55:23.840Z,82.42
2017-09-08T14:57:52.324Z,82.98
2017-09-08T15:00:20.752Z,83.14
2017-09-08T15:02:49.289Z,83.07
2017-09-08T15:05:17.782Z,83.29
2017-09-08T15:07:46.251Z,83.71
2017-09-08T15:10:14.736Z,83.77
2017-09-08T15:12:43.220Z,83.57
2017-09-08T15:15:11.696Z,84.23
2017-09-08T15:17:40.180Z,84.39
2017-09-08T15:20:08.680Z,84.20
2017-09-08T15:22:37.133Z,84.57
2017-09-08T15:25:05.628Z,84.38
2017-09-08T15:27:34.112Z,85.23
2017-09-08T15:30:02.547Z,85.13
2017-09-08T15:32:31.799Z,85.87
2017-09-08T15:35:00.277Z,86.05
2017-09-08T15:37:28.728Z,86.11
2017-09-08T15:39:57.952Z,85.87
2017-09-08T15:42:26.436Z,86.39
2017-09-08T15:44:54.917Z,86.37
2017-09-08T15:47:23.364Z,86.57
2017-09-08T15:49:52.560Z,87.49
2017-09-08T15:52:21.760Z,87.08
2017-09-08T15:54:50.996Z,87.60
2017-09-08T15:57:19.428Z,87.56
2017-09-08T15:59:47.876Z,87.86
2017-09-08T16:02:16.344Z,87.96
2017-09-08T16:04:44.808Z,88.43
2017-09-08T16:07:13.304Z,88.84
2017-09-08T16:09:41.784Z,88.41
2017-09-08T16:12:10.269Z,88.36
2017-09-08T16:14:38.753Z,89.17
2017-09-08T16:17:07.250Z,89.44
2017-09-08T16:19:35.815Z,89.57
2017-09-08T16:22:04.341Z,89.41
2017-09-08T16:24:32.883Z,89.98
2017-09-08T16:27:01.316Z,89.65
2017-09-08T16:29:29.854Z,89.76
2017-09-08T16:31:58.334Z,89.30
2017-09-08T16:34:26.817Z,89.98
2017-09-08T16:36:55.297Z,89.91
2017-09-08T16:39:23.772Z,89.89
2017-09-08T16:41:52.256Z,89.42
2017-09-08T16:44:20.735Z,89.65
2017-09-08T16:46:49.228Z,89.58
2017-09-08T16:49:17.715Z,90.29
2017-09-08T16:51:46.199Z,90.09
2017-09-08T16:54:14.663Z,89.71
2017-09-08T16:56:43.087Z,89.73
2017-09-08T16:59:11.628Z,89.74
2017-09-08T17:01:40.112Z,90.15
2017-09-08T17:04:08.592Z,90.02
2017-09-08T17:06:37.081Z,90.05
2017-09-08T17:09:05.559Z,90.62
2017-09-08T17:11:34.040Z,90.57
2017-09-08T17:14:02.488Z,90.46
2017-09-08T17:16:31.685Z,90.13
2017-09-08T17:19:00.909Z,89.93
2017-09-08T17:21:29.633Z,89.96
2017-09-08T17:23:58.101Z,89.79
2017-09-08T17:26:26.545Z,89.86
2017-09-08T17:28:55.972Z,90.07
2017-09-08T17:31:24.457Z,90.45
2017-09-08T17:33:52.936Z,90.42
2017-09-08T17:36:21.396Z,90.74
2017-09-08T17:38:50.616Z,90.79
2017-09-08T17:41:19.100Z,91.05
2017-09-08T17:43:47.543Z,91.17
2017-09-08T17:46:16.780Z,91.06
2017-09-08T17:48:45.253Z,90.99
2017-09-08T17:51:13.744Z,90.87
2017-09-08T17:53:42.333Z,91.16
2017-09-08T17:56:10.813Z,90.97
2017-09-08T17:58:39.294Z,90.98
2017-09-08T18:01:08.492Z,91.03
2017-09-08T18:03:36.982Z,91.33
2017-09-08T18:06:05.460Z,91.29
2017-09-08T18:08:33.892Z,91.70
2017-09-08T18:11:02.433Z,91.31
2017-09-08T18:13:30.873Z,91.00
2017-09-08T18:16:00.115Z,91.12
2017-09-08T18:18:28.579Z,91.09
2017-09-08T18:20:57.037Z,91.35
2017-09-08T18:23:26.268Z,91.35
2017-09-08T18:25:54.725Z,91.24
2017-09-08T18:28:23.235Z,91.13
2017-09-08T18:30:51.708Z,91.77
2017-09-08T18:33:20.196Z,91.43
2017-09-08T18:35:48.644Z,91.32
2017-09-08T18:38:17.844Z,91.67
2017-09-08T18:40:47.172Z,91.32
2017-09-08T18:43:15.655Z,91.79
2017-09-08T18:45:44.140Z,91.81
2017-09-08T18:48:12.624Z,91.74
2017-09-08T18:50:41.099Z,91.67
2017-09-08T18:53:09.537Z,91.84
2017-09-08T18:55:38.068Z,91.70
2017-09-08T18:58:06.505Z,92.11
2017-09-08T19:00:35.028Z,92.20
2017-09-08T19:03:03.463Z,91.93
2017-09-08T19:05:31.925Z,92.19
2017-09-08T19:08:00.393Z,91.96
2017-09-08T19:10:28.980Z,92.24
2017-09-08T19:12:57.416Z,92.11
2017-09-08T19:15:26.701Z,91.80
2017-09-08T19:17:55.989Z,92.06
2017-09-08T19:20:24.421Z,92.07
2017-09-08T19:22:52.876Z,91.97
2017-09-08T19:25:22.107Z,91.86
2017-09-08T19:27:50.560Z,91.44
2017-09-08T19:30:19.784Z,91.81
2017-09-08T19:32:48.237Z,91.70
2017-09-08T19:35:17.455Z,91.73
2017-09-08T19:37:45.951Z,91.94
2017-09-08T19:40:14.437Z,91.27
2017-09-08T19:42:42.908Z,90.98
2017-09-08T19:45:11.335Z,90.82
2017-09-08T19:47:39.784Z,90.94
2017-09-08T19:50:08.231Z,90.77
2017-09-08T19:52:36.688Z,90.88
2017-09-08T19:55:05.218Z,90.72
2017-09-08T19:57:33.678Z,90.77
2017-09-08T20:00:02.898Z,90.89
2017-09-08T20:02:31.346Z,91.24
2017-09-08T20:05:00.588Z,91.12
2017-09-08T20:07:29.034Z,91.05
2017-09-08T20:09:58.266Z,91.12
2017-09-08T20:12:26.750Z,91.01
2017-09-08T20:14:55.196Z,90.83
2017-09-08T20:17:24.513Z,90.67
2017-09-08T20:19:52.940Z,90.25
2017-09-08T20:22:21.389Z,90.02
2017-09-08T20:24:49.819Z,90.03
2017-09-08T20:27:18.349Z,90.57
2017-09-08T20:29:46.836Z,90.87
2017-09-08T20:32:15.284Z,90.56
2017-09-08T20:34:44.512Z,90.96
2017-09-08T20:37:12.959Z,90.58
2017-09-08T20:39:42.191Z,90.54
2017-09-08T20:42:10.680Z,90.36
2017-09-08T20:44:39.160Z,90.64
2017-09-08T20:47:07.642Z,90.50
2017-09-08T20:49:36.068Z,90.73
2017-09-08T20:52:04.597Z,90.91
2017-09-08T20:54:33.025Z,90.85
2017-09-08T20:57:01.569Z,91.14
2017-09-08T20:59:30.052Z,90.96
2017-09-08T21:01:58.520Z,91.15
2017-09-08T21:04:27.022Z,91.21
2017-09-08T21:06:55.496Z,91.00
2017-09-08T21:09:23.924Z,91.06
2017-09-08T21:11:52.371Z,91.31
2017-09-08T21:14:20.797Z,90.91
2017-09-08T21:16:50.025Z,90.97
2017-09-08T21:19:18.461Z,90.64
2017-09-08T21:21:46.999Z,90.92
2017-09-08T21:24:15.448Z,90.86
2017-09-08T21:26:44.684Z,90.55
2017-09-08T21:29:13.164Z,90.79
2017-09-08T21:31:41.648Z,90.83
2017-09-08T21:34:10.096Z,90.73
2017-09-08T21:36:39.292Z,90.61
2017-09-08T21:39:08.516Z,90.53
2017-09-08T21:41:36.940Z,90.58
2017-09-08T21:44:05.383Z,90.49
2017-09-08T21:46:33.874Z,90.45
2017-09-08T21:49:02.353Z,90.22
2017-09-08T21:51:30.795Z,90.27
2017-09-08T21:54:00.046Z,90.13
2017-09-08T21:56:28.469Z,90.26
2017-09-08T21:58:56.912Z,90.27
2017-09-08T22:01:25.352Z,90.19
2017-09-08T22:03:54.564Z,90.23
2017-09-08T22:06:23.060Z,89.86
2017-09-08T22:08:51.540Z,89.61
2017-09-08T22:11:19.968Z,89.64
2017-09-08T22:13:48.402Z,89.64
2017-09-08T22:16:16.884Z,89.80
2017-09-08T22:18:45.332Z,89.87
2017-09-08T22:21:14.523Z,89.75
2017-09-08T22:23:43.765Z,89.54
2017-09-08T22:26:12.244Z,89.46
2017-09-08T22:28:40.692Z,89.60
2017-09-08T22:31:09.926Z,89.58
2017-09-08T22:33:38.418Z,89.77
2017-09-08T22:36:06.888Z,89.95
2017-09-08T22:38:35.344Z,89.93
2017-09-08T22:41:04.567Z,89.84
2017-09-08T22:43:33.007Z,89.87
2017-09-08T22:46:01.436Z,89.83
2017-09-08T22:48:29.917Z,90.26
2017-09-08T22:50:58.348Z,90.31
2017-09-08T22:53:26.796Z,90.11
2017-09-08T22:55:55.871Z,90.45
2017-09-08T22:58:24.324Z,90.73
2017-09-08T23:00:53.556Z,90.76
2017-09-08T23:03:22.005Z,90.81
2017-09-08T23:05:51.241Z,90.65
2017-09-08T23:08:19.713Z,91.10
2017-09-08T23:10:48.140Z,90.80
2017-09-08T23:13:16.590Z,91.12
2017-09-08T23:15:45.064Z,90.70
2017-09-08T23:18:13.503Z,90.53
2017-09-08T23:20:42.693Z,90.52
2017-09-08T23:23:11.140Z,90.53
2017-09-08T23:25:39.604Z,90.50
2017-09-08T23:28:08.085Z,89.64
2017-09-08T23:30:36.567Z,90.20
2017-09-08T23:33:05.047Z,90.13
2017-09-08T23:35:33.525Z,89.61
2017-09-08T23:38:01.949Z,89.73
2017-09-08T23:40:30.492Z,89.25
2017-09-08T23:42:58.980Z,88.90
2017-09-08T23:45:27.473Z,88.62
2017-09-08T23:47:55.900Z,88.59
2017-09-08T23:50:25.141Z,88.53
2017-09-08T23:52:53.621Z,88.40
2017-09-08T23:55:22.073Z,88.91
2017-09-08T23:57:51.304Z,88.48
